sensor_id;sensor_type;location;lat;lon;timestamp;P1;durP1;ratioP1;P2;durP2;ratioP2
12906;SDS011;6521;50.498;8.474;2024-03-23T00:52:12;30.13;;;19.07;;
12906;SDS011;6521;50.498;8.474;2024-03-23T00:54:43;32.17;;;18.07;;
12906;SDS011;6521;50.498;8.474;2024-03-23T00:57:14;31.13;;;19.43;;
12906;SDS011;6521;50.498;8.474;2024-03-23T00:59:44;31.07;;;19.90;;
12906;SDS011;6521;50.498;8.474;2024-03-23T01:02:16;28.50;;;19.40;;
12906;SDS011;6521;50.498;8.474;2024-03-23T01:04:47;28.57;;;19.27;;
12906;SDS011;6521;50.498;8.474;2024-03-23T01:07:18;35.93;;;20.83;;
12906;SDS011;6521;50.498;8.474;2024-03-23T01:09:48;34.20;;;20.03;;
12906;SDS011;6521;50.498;8.474;2024-03-23T01:12:21;32.33;;;22.07;;
12906;SDS011;6521;50.498;8.474;2024-03-23T01:14:54;38.87;;;21.87;;
12906;SDS011;6521;50.498;8.474;2024-03-23T01:17:24;39.03;;;22.10;;
12906;SDS011;6521;50.498;8.474;2024-03-23T01:19:55;34.50;;;22.43;;
12906;SDS011;6521;50.498;8.474;2024-03-23T01:22:26;35.60;;;22.70;;
12906;SDS011;6521;50.498;8.474;2024-03-23T01:24:57;34.60;;;22.13;;
12906;SDS011;6521;50.498;8.474;2024-03-23T01:27:28;33.67;;;21.80;;
12906;SDS011;6521;50.498;8.474;2024-03-23T01:29:59;36.83;;;23.33;;
12906;SDS011;6521;50.498;8.474;2024-03-23T01:32:30;38.63;;;23.97;;
12906;SDS011;6521;50.498;8.474;2024-03-23T01:35:01;40.23;;;23.23;;
12906;SDS011;6521;50.498;8.474;2024-03-23T01:37:32;39.67;;;24.50;;
12906;SDS011;6521;50.498;8.474;2024-03-23T01:40:02;33.97;;;22.90;;
12906;SDS011;6521;50.498;8.474;2024-03-23T01:42:34;37.93;;;22.77;;
12906;SDS011;6521;50.498;8.474;2024-03-23T01:45:06;34.67;;;22.83;;
12906;SDS011;6521;50.498;8.474;2024-03-23T01:47:42;38.13;;;23.23;;
12906;SDS011;6521;50.498;8.474;2024-03-23T01:50:15;33.67;;;21.90;;
12906;SDS011;6521;50.498;8.474;2024-03-23T01:52:48;42.60;;;24.57;;
12906;SDS011;6521;50.498;8.474;2024-03-23T01:55:20;38.10;;;25.30;;
12906;SDS011;6521;50.498;8.474;2024-03-23T01:57:52;43.97;;;27.90;;
12906;SDS011;6521;50.498;8.474;2024-03-23T02:00:23;48.30;;;26.53;;
12906;SDS011;6521;50.498;8.474;2024-03-23T02:02:55;41.13;;;27.00;;
12906;SDS011;6521;50.498;8.474;2024-03-23T02:05:26;40.50;;;25.63;;
12906;SDS011;6521;50.498;8.474;2024-03-23T02:07:56;48.03;;;27.10;;
12906;SDS011;6521;50.498;8.474;2024-03-23T02:10:27;53.60;;;31.00;;
12906;SDS011;6521;50.498;8.474;2024-03-23T02:12:58;56.07;;;32.47;;
12906;SDS011;6521;50.498;8.474;2024-03-23T02:15:29;45.37;;;27.53;;
12906;SDS011;6521;50.498;8.474;2024-03-23T02:18:00;52.13;;;30.07;;
12906;SDS011;6521;50.498;8.474;2024-03-23T02:20:31;50.40;;;29.93;;
12906;SDS011;6521;50.498;8.474;2024-03-23T02:23:02;52.73;;;30.03;;
12906;SDS011;6521;50.498;8.474;2024-03-23T02:25:33;47.80;;;30.20;;
12906;SDS011;6521;50.498;8.474;2024-03-23T02:28:04;51.10;;;29.40;;
12906;SDS011;6521;50.498;8.474;2024-03-23T02:30:35;53.07;;;30.70;;
12906;SDS011;6521;50.498;8.474;2024-03-23T02:33:06;49.33;;;29.53;;
12906;SDS011;6521;50.498;8.474;2024-03-23T02:35:36;51.77;;;28.97;;
12906;SDS011;6521;50.498;8.474;2024-03-23T02:38:08;45.17;;;28.50;;
12906;SDS011;6521;50.498;8.474;2024-03-23T02:40:39;51.57;;;28.53;;
12906;SDS011;6521;50.498;8.474;2024-03-23T02:43:09;52.03;;;30.33;;
12906;SDS011;6521;50.498;8.474;2024-03-23T02:45:40;49.20;;;28.40;;
12906;SDS011;6521;50.498;8.474;2024-03-23T02:48:11;46.27;;;28.87;;
12906;SDS011;6521;50.498;8.474;2024-03-23T02:50:42;50.60;;;30.20;;
12906;SDS011;6521;50.498;8.474;2024-03-23T02:53:15;48.33;;;29.73;;
12906;SDS011;6521;50.498;8.474;2024-03-23T02:55:45;48.50;;;28.53;;
12906;SDS011;6521;50.498;8.474;2024-03-23T02:58:16;53.27;;;29.50;;
12906;SDS011;6521;50.498;8.474;2024-03-23T03:00:47;55.27;;;31.33;;
12906;SDS011;6521;50.498;8.474;2024-03-23T03:03:19;49.23;;;28.23;;
12906;SDS011;6521;50.498;8.474;2024-03-23T03:05:56;49.53;;;30.30;;
12906;SDS011;6521;50.498;8.474;2024-03-23T03:08:27;59.60;;;30.77;;
12906;SDS011;6521;50.498;8.474;2024-03-23T03:10:57;60.07;;;31.43;;
12906;SDS011;6521;50.498;8.474;2024-03-23T03:13:28;51.43;;;29.47;;
12906;SDS011;6521;50.498;8.474;2024-03-23T03:15:59;50.27;;;29.40;;
12906;SDS011;6521;50.498;8.474;2024-03-23T03:18:31;51.57;;;30.67;;
12906;SDS011;6521;50.498;8.474;2024-03-23T03:21:02;50.43;;;29.40;;
12906;SDS011;6521;50.498;8.474;2024-03-23T03:23:39;51.27;;;30.47;;
12906;SDS011;6521;50.498;8.474;2024-03-23T03:26:12;55.70;;;30.20;;
12906;SDS011;6521;50.498;8.474;2024-03-23T03:28:43;62.23;;;32.40;;
12906;SDS011;6521;50.498;8.474;2024-03-23T03:31:19;46.50;;;26.90;;
12906;SDS011;6521;50.498;8.474;2024-03-23T03:33:52;44.70;;;26.53;;
12906;SDS011;6521;50.498;8.474;2024-03-23T03:36:28;44.33;;;27.63;;
12906;SDS011;6521;50.498;8.474;2024-03-23T03:39:02;41.07;;;25.33;;
12906;SDS011;6521;50.498;8.474;2024-03-23T03:41:34;46.57;;;28.20;;
12906;SDS011;6521;50.498;8.474;2024-03-23T03:44:05;38.67;;;21.63;;
12906;SDS011;6521;50.498;8.474;2024-03-23T03:46:36;30.17;;;15.83;;
12906;SDS011;6521;50.498;8.474;2024-03-23T03:49:07;22.17;;;12.73;;
12906;SDS011;6521;50.498;8.474;2024-03-23T03:51:39;11.33;;;7.50;;
12906;SDS011;6521;50.498;8.474;2024-03-23T03:54:13;7.10;;;4.53;;
12906;SDS011;6521;50.498;8.474;2024-03-23T03:56:43;5.10;;;3.97;;
12906;SDS011;6521;50.498;8.474;2024-03-23T03:59:15;8.87;;;4.43;;
12906;SDS011;6521;50.498;8.474;2024-03-23T04:01:48;7.20;;;5.40;;
12906;SDS011;6521;50.498;8.474;2024-03-23T04:04:23;12.03;;;6.97;;
12906;SDS011;6521;50.498;8.474;2024-03-23T04:07:00;8.77;;;5.53;;
12906;SDS011;6521;50.498;8.474;2024-03-23T04:09:35;8.00;;;4.60;;
12906;SDS011;6521;50.498;8.474;2024-03-23T04:12:06;6.50;;;3.27;;
12906;SDS011;6521;50.498;8.474;2024-03-23T04:14:37;2.93;;;2.33;;
12906;SDS011;6521;50.498;8.474;2024-03-23T04:17:07;2.13;;;1.70;;
12906;SDS011;6521;50.498;8.474;2024-03-23T04:19:39;2.73;;;2.13;;
12906;SDS011;6521;50.498;8.474;2024-03-23T04:22:13;2.47;;;1.60;;
12906;SDS011;6521;50.498;8.474;2024-03-23T04:24:44;2.37;;;1.57;;
12906;SDS011;6521;50.498;8.474;2024-03-23T04:27:15;2.23;;;1.70;;
12906;SDS011;6521;50.498;8.474;2024-03-23T04:29:48;1.23;;;1.13;;
12906;SDS011;6521;50.498;8.474;2024-03-23T04:32:21;1.20;;;1.10;;
12906;SDS011;6521;50.498;8.474;2024-03-23T04:34:51;1.40;;;1.30;;
12906;SDS011;6521;50.498;8.474;2024-03-23T04:37:23;1.03;;;1.03;;
12906;SDS011;6521;50.498;8.474;2024-03-23T04:39:54;1.30;;;1.20;;
12906;SDS011;6521;50.498;8.474;2024-03-23T04:42:25;1.13;;;1.03;;
12906;SDS011;6521;50.498;8.474;2024-03-23T04:44:58;1.50;;;1.20;;
12906;SDS011;6521;50.498;8.474;2024-03-23T04:47:29;1.03;;;1.00;;
12906;SDS011;6521;50.498;8.474;2024-03-23T04:50:00;1.30;;;1.20;;
12906;SDS011;6521;50.498;8.474;2024-03-23T04:52:32;1.77;;;1.20;;
12906;SDS011;6521;50.498;8.474;2024-03-23T04:55:03;1.53;;;1.33;;
12906;SDS011;6521;50.498;8.474;2024-03-23T04:57:36;1.37;;;1.30;;
12906;SDS011;6521;50.498;8.474;2024-03-23T05:00:11;1.87;;;1.30;;
12906;SDS011;6521;50.498;8.474;2024-03-23T05:02:52;1.30;;;1.20;;
12906;SDS011;6521;50.498;8.474;2024-03-23T05:05:24;1.87;;;1.30;;
12906;SDS011;6521;50.498;8.474;2024-03-23T05:07:55;1.60;;;1.00;;
12906;SDS011;6521;50.498;8.474;2024-03-23T05:10:28;1.37;;;1.27;;
12906;SDS011;6521;50.498;8.474;2024-03-23T05:13:02;0.93;;;0.93;;
12906;SDS011;6521;50.498;8.474;2024-03-23T05:15:37;1.37;;;1.20;;
12906;SDS011;6521;50.498;8.474;2024-03-23T05:18:08;1.17;;;1.00;;
12906;SDS011;6521;50.498;8.474;2024-03-23T05:20:43;0.90;;;0.90;;
12906;SDS011;6521;50.498;8.474;2024-03-23T05:23:15;1.60;;;0.97;;
12906;SDS011;6521;50.498;8.474;2024-03-23T05:25:46;0.90;;;0.90;;
12906;SDS011;6521;50.498;8.474;2024-03-23T05:28:20;1.47;;;0.80;;
12906;SDS011;6521;50.498;8.474;2024-03-23T05:30:54;0.80;;;0.80;;
12906;SDS011;6521;50.498;8.474;2024-03-23T05:33:26;1.03;;;0.70;;
12906;SDS011;6521;50.498;8.474;2024-03-23T05:35:58;0.60;;;0.60;;
12906;SDS011;6521;50.498;8.474;2024-03-23T05:38:31;0.60;;;0.60;;
12906;SDS011;6521;50.498;8.474;2024-03-23T05:41:03;1.60;;;0.87;;
12906;SDS011;6521;50.498;8.474;2024-03-23T05:43:55;1.13;;;0.70;;
12906;SDS011;6521;50.498;8.474;2024-03-23T05:46:27;3.07;;;0.77;;
12906;SDS011;6521;50.498;8.474;2024-03-23T05:48:58;1.73;;;0.77;;
12906;SDS011;6521;50.498;8.474;2024-03-23T05:51:32;2.90;;;0.83;;
12906;SDS011;6521;50.498;8.474;2024-03-23T05:54:19;1.93;;;0.77;;
12906;SDS011;6521;50.498;8.474;2024-03-23T05:56:54;1.03;;;0.90;;
12906;SDS011;6521;50.498;8.474;2024-03-23T05:59:26;1.40;;;0.93;;
12906;SDS011;6521;50.498;8.474;2024-03-23T06:01:59;1.00;;;0.73;;
12906;SDS011;6521;50.498;8.474;2024-03-23T06:04:33;0.97;;;0.80;;
12906;SDS011;6521;50.498;8.474;2024-03-23T06:07:04;2.27;;;1.10;;
12906;SDS011;6521;50.498;8.474;2024-03-23T06:09:45;3.53;;;1.37;;
12906;SDS011;6521;50.498;8.474;2024-03-23T06:12:18;1.53;;;0.87;;
12906;SDS011;6521;50.498;8.474;2024-03-23T06:14:50;1.27;;;1.17;;
12906;SDS011;6521;50.498;8.474;2024-03-23T06:17:24;1.77;;;1.07;;
12906;SDS011;6521;50.498;8.474;2024-03-23T06:19:55;1.93;;;1.10;;
12906;SDS011;6521;50.498;8.474;2024-03-23T06:22:29;1.23;;;1.13;;
12906;SDS011;6521;50.498;8.474;2024-03-23T06:25:00;2.43;;;1.53;;
12906;SDS011;6521;50.498;8.474;2024-03-23T06:27:32;1.10;;;1.10;;
12906;SDS011;6521;50.498;8.474;2024-03-23T06:30:07;4.07;;;1.53;;
12906;SDS011;6521;50.498;8.474;2024-03-23T06:32:42;4.07;;;1.27;;
12906;SDS011;6521;50.498;8.474;2024-03-23T06:35:13;3.30;;;1.20;;
12906;SDS011;6521;50.498;8.474;2024-03-23T06:37:45;4.33;;;1.60;;
12906;SDS011;6521;50.498;8.474;2024-03-23T06:40:16;3.73;;;1.47;;
12906;SDS011;6521;50.498;8.474;2024-03-23T06:42:47;4.70;;;1.67;;
12906;SDS011;6521;50.498;8.474;2024-03-23T06:45:18;3.03;;;1.40;;
12906;SDS011;6521;50.498;8.474;2024-03-23T06:47:53;3.47;;;1.57;;
12906;SDS011;6521;50.498;8.474;2024-03-23T06:50:26;3.13;;;1.87;;
12906;SDS011;6521;50.498;8.474;2024-03-23T06:53:01;3.20;;;1.80;;
12906;SDS011;6521;50.498;8.474;2024-03-23T06:55:35;3.80;;;2.23;;
12906;SDS011;6521;50.498;8.474;2024-03-23T06:58:08;3.73;;;2.00;;
12906;SDS011;6521;50.498;8.474;2024-03-23T07:00:40;3.90;;;1.90;;
12906;SDS011;6521;50.498;8.474;2024-03-23T07:03:14;4.27;;;1.93;;
12906;SDS011;6521;50.498;8.474;2024-03-23T07:05:46;6.70;;;2.00;;
12906;SDS011;6521;50.498;8.474;2024-03-23T07:08:20;9.20;;;3.27;;
12906;SDS011;6521;50.498;8.474;2024-03-23T07:10:56;4.97;;;2.63;;
12906;SDS011;6521;50.498;8.474;2024-03-23T07:13:27;7.40;;;2.80;;
12906;SDS011;6521;50.498;8.474;2024-03-23T07:15:59;5.57;;;2.90;;
12906;SDS011;6521;50.498;8.474;2024-03-23T07:18:32;5.03;;;2.60;;
12906;SDS011;6521;50.498;8.474;2024-03-23T07:21:05;4.50;;;2.27;;
12906;SDS011;6521;50.498;8.474;2024-03-23T07:23:37;9.73;;;2.13;;
12906;SDS011;6521;50.498;8.474;2024-03-23T07:26:08;4.63;;;2.33;;
12906;SDS011;6521;50.498;8.474;2024-03-23T07:28:43;4.57;;;2.57;;
12906;SDS011;6521;50.498;8.474;2024-03-23T07:31:15;4.93;;;2.47;;
12906;SDS011;6521;50.498;8.474;2024-03-23T07:33:47;7.83;;;2.80;;
12906;SDS011;6521;50.498;8.474;2024-03-23T07:36:19;7.73;;;3.70;;
12906;SDS011;6521;50.498;8.474;2024-03-23T07:38:50;9.23;;;3.90;;
12906;SDS011;6521;50.498;8.474;2024-03-23T07:41:24;10.20;;;3.93;;
12906;SDS011;6521;50.498;8.474;2024-03-23T07:43:55;7.93;;;3.93;;
12906;SDS011;6521;50.498;8.474;2024-03-23T07:46:27;9.70;;;5.37;;
12906;SDS011;6521;50.498;8.474;2024-03-23T07:48:58;8.30;;;4.97;;
12906;SDS011;6521;50.498;8.474;2024-03-23T07:51:29;10.40;;;5.07;;
12906;SDS011;6521;50.498;8.474;2024-03-23T07:54:01;6.67;;;5.30;;
12906;SDS011;6521;50.498;8.474;2024-03-23T07:56:35;8.83;;;5.83;;
12906;SDS011;6521;50.498;8.474;2024-03-23T07:59:05;13.57;;;5.57;;
12906;SDS011;6521;50.498;8.474;2024-03-23T08:01:39;11.07;;;5.83;;
12906;SDS011;6521;50.498;8.474;2024-03-23T08:04:28;16.57;;;5.90;;
12906;SDS011;6521;50.498;8.474;2024-03-23T08:06:59;9.13;;;5.80;;
12906;SDS011;6521;50.498;8.474;2024-03-23T08:09:30;18.07;;;7.23;;
12906;SDS011;6521;50.498;8.474;2024-03-23T08:12:01;11.43;;;6.23;;
12906;SDS011;6521;50.498;8.474;2024-03-23T08:14:35;13.67;;;6.50;;
12906;SDS011;6521;50.498;8.474;2024-03-23T08:17:07;16.67;;;6.60;;
12906;SDS011;6521;50.498;8.474;2024-03-23T08:19:38;15.40;;;7.40;;
12906;SDS011;6521;50.498;8.474;2024-03-23T08:22:09;12.13;;;7.70;;
12906;SDS011;6521;50.498;8.474;2024-03-23T08:24:40;13.10;;;6.67;;
12906;SDS011;6521;50.498;8.474;2024-03-23T08:27:10;15.43;;;7.90;;
12906;SDS011;6521;50.498;8.474;2024-03-23T08:29:45;14.03;;;8.20;;
12906;SDS011;6521;50.498;8.474;2024-03-23T08:32:18;13.47;;;7.17;;
12906;SDS011;6521;50.498;8.474;2024-03-23T08:34:57;11.97;;;7.70;;
12906;SDS011;6521;50.498;8.474;2024-03-23T08:37:31;15.23;;;8.13;;
12906;SDS011;6521;50.498;8.474;2024-03-23T08:40:06;15.83;;;7.73;;
12906;SDS011;6521;50.498;8.474;2024-03-23T08:42:39;19.00;;;8.20;;
12906;SDS011;6521;50.498;8.474;2024-03-23T08:45:15;14.53;;;6.77;;
12906;SDS011;6521;50.498;8.474;2024-03-23T08:47:47;13.80;;;7.97;;
12906;SDS011;6521;50.498;8.474;2024-03-23T08:50:24;14.90;;;6.23;;
12906;SDS011;6521;50.498;8.474;2024-03-23T08:52:55;19.87;;;6.80;;
12906;SDS011;6521;50.498;8.474;2024-03-23T08:55:27;12.40;;;5.77;;
12906;SDS011;6521;50.498;8.474;2024-03-23T08:58:01;15.90;;;6.37;;
12906;SDS011;6521;50.498;8.474;2024-03-23T09:00:35;13.30;;;5.73;;
12906;SDS011;6521;50.498;8.474;2024-03-23T09:03:06;16.30;;;5.80;;
12906;SDS011;6521;50.498;8.474;2024-03-23T09:05:41;17.90;;;5.60;;
12906;SDS011;6521;50.498;8.474;2024-03-23T09:08:13;17.33;;;6.73;;
12906;SDS011;6521;50.498;8.474;2024-03-23T09:10:47;12.13;;;5.73;;
12906;SDS011;6521;50.498;8.474;2024-03-23T09:13:18;12.70;;;5.57;;
12906;SDS011;6521;50.498;8.474;2024-03-23T09:15:50;14.63;;;5.17;;
12906;SDS011;6521;50.498;8.474;2024-03-23T09:18:23;14.33;;;4.80;;
12906;SDS011;6521;50.498;8.474;2024-03-23T09:20:55;12.87;;;4.27;;
12906;SDS011;6521;50.498;8.474;2024-03-23T09:23:29;10.97;;;3.90;;
12906;SDS011;6521;50.498;8.474;2024-03-23T09:26:04;14.60;;;4.17;;
12906;SDS011;6521;50.498;8.474;2024-03-23T09:28:38;14.83;;;3.87;;
12906;SDS011;6521;50.498;8.474;2024-03-23T09:31:09;10.63;;;3.87;;
12906;SDS011;6521;50.498;8.474;2024-03-23T09:33:46;12.70;;;3.80;;
12906;SDS011;6521;50.498;8.474;2024-03-23T09:36:17;15.17;;;4.20;;
12906;SDS011;6521;50.498;8.474;2024-03-23T09:38:48;10.87;;;4.13;;
12906;SDS011;6521;50.498;8.474;2024-03-23T09:41:19;14.30;;;4.43;;
12906;SDS011;6521;50.498;8.474;2024-03-23T09:43:53;11.07;;;3.20;;
12906;SDS011;6521;50.498;8.474;2024-03-23T09:46:25;13.53;;;2.90;;
12906;SDS011;6521;50.498;8.474;2024-03-23T09:48:59;7.77;;;3.00;;
12906;SDS011;6521;50.498;8.474;2024-03-23T09:51:31;6.80;;;3.13;;
12906;SDS011;6521;50.498;8.474;2024-03-23T09:54:02;12.67;;;4.03;;
12906;SDS011;6521;50.498;8.474;2024-03-23T09:56:34;9.10;;;3.73;;
12906;SDS011;6521;50.498;8.474;2024-03-23T09:59:06;7.33;;;2.90;;
12906;SDS011;6521;50.498;8.474;2024-03-23T10:01:38;11.07;;;3.30;;
12906;SDS011;6521;50.498;8.474;2024-03-23T10:04:09;9.73;;;3.53;;
12906;SDS011;6521;50.498;8.474;2024-03-23T10:06:43;12.33;;;3.23;;
12906;SDS011;6521;50.498;8.474;2024-03-23T10:09:19;11.60;;;2.67;;
12906;SDS011;6521;50.498;8.474;2024-03-23T10:11:50;7.20;;;2.60;;
12906;SDS011;6521;50.498;8.474;2024-03-23T10:14:30;6.60;;;2.13;;
12906;SDS011;6521;50.498;8.474;2024-03-23T10:17:11;4.03;;;1.73;;
12906;SDS011;6521;50.498;8.474;2024-03-23T10:19:46;6.73;;;1.80;;
12906;SDS011;6521;50.498;8.474;2024-03-23T10:22:18;8.13;;;2.63;;
12906;SDS011;6521;50.498;8.474;2024-03-23T10:24:51;8.10;;;3.60;;
12906;SDS011;6521;50.498;8.474;2024-03-23T10:27:24;10.83;;;4.93;;
12906;SDS011;6521;50.498;8.474;2024-03-23T10:29:55;11.97;;;4.43;;
12906;SDS011;6521;50.498;8.474;2024-03-23T10:32:40;8.07;;;2.93;;
12906;SDS011;6521;50.498;8.474;2024-03-23T10:35:14;5.00;;;2.30;;
12906;SDS011;6521;50.498;8.474;2024-03-23T10:37:49;8.70;;;2.70;;
12906;SDS011;6521;50.498;8.474;2024-03-23T10:40:24;5.63;;;2.37;;
12906;SDS011;6521;50.498;8.474;2024-03-23T10:42:55;4.30;;;1.70;;
12906;SDS011;6521;50.498;8.474;2024-03-23T10:45:28;4.97;;;1.90;;
12906;SDS011;6521;50.498;8.474;2024-03-23T10:47:59;12.97;;;2.70;;
12906;SDS011;6521;50.498;8.474;2024-03-23T10:50:32;4.10;;;2.03;;
12906;SDS011;6521;50.498;8.474;2024-03-23T10:53:03;5.70;;;2.33;;
12906;SDS011;6521;50.498;8.474;2024-03-23T10:55:38;6.23;;;1.90;;
12906;SDS011;6521;50.498;8.474;2024-03-23T10:58:11;3.97;;;2.10;;
12906;SDS011;6521;50.498;8.474;2024-03-23T11:00:43;6.63;;;2.67;;
12906;SDS011;6521;50.498;8.474;2024-03-23T11:06:06;7.40;;;2.83;;
12906;SDS011;6521;50.498;8.474;2024-03-23T11:08:40;6.07;;;2.57;;
12906;SDS011;6521;50.498;8.474;2024-03-23T11:11:21;7.40;;;3.07;;
12906;SDS011;6521;50.498;8.474;2024-03-23T11:13:53;7.93;;;2.40;;
12906;SDS011;6521;50.498;8.474;2024-03-23T11:16:25;10.10;;;2.60;;
12906;SDS011;6521;50.498;8.474;2024-03-23T11:22:07;3.80;;;1.80;;
12906;SDS011;6521;50.498;8.474;2024-03-23T11:24:38;7.27;;;3.33;;
12906;SDS011;6521;50.498;8.474;2024-03-23T11:27:15;9.63;;;4.33;;
12906;SDS011;6521;50.498;8.474;2024-03-23T11:29:49;7.43;;;3.37;;
12906;SDS011;6521;50.498;8.474;2024-03-23T11:32:21;7.67;;;3.57;;
12906;SDS011;6521;50.498;8.474;2024-03-23T11:34:52;6.90;;;3.57;;
12906;SDS011;6521;50.498;8.474;2024-03-23T11:37:23;12.00;;;3.00;;
12906;SDS011;6521;50.498;8.474;2024-03-23T11:39:54;15.73;;;4.33;;
12906;SDS011;6521;50.498;8.474;2024-03-23T11:42:28;12.07;;;3.17;;
12906;SDS011;6521;50.498;8.474;2024-03-23T11:45:07;8.97;;;2.90;;
12906;SDS011;6521;50.498;8.474;2024-03-23T11:47:43;8.60;;;2.60;;
12906;SDS011;6521;50.498;8.474;2024-03-23T11:50:20;6.67;;;2.87;;
12906;SDS011;6521;50.498;8.474;2024-03-23T11:52:51;8.00;;;2.73;;
12906;SDS011;6521;50.498;8.474;2024-03-23T11:55:22;11.30;;;2.33;;
12906;SDS011;6521;50.498;8.474;2024-03-23T11:57:54;6.30;;;2.23;;
12906;SDS011;6521;50.498;8.474;2024-03-23T12:00:25;10.03;;;4.00;;
12906;SDS011;6521;50.498;8.474;2024-03-23T12:03:00;5.50;;;3.03;;
12906;SDS011;6521;50.498;8.474;2024-03-23T12:05:34;9.67;;;2.47;;
12906;SDS011;6521;50.498;8.474;2024-03-23T12:11:04;8.93;;;3.90;;
12906;SDS011;6521;50.498;8.474;2024-03-23T12:13:36;10.27;;;3.13;;
12906;SDS011;6521;50.498;8.474;2024-03-23T12:16:09;8.07;;;3.33;;
12906;SDS011;6521;50.498;8.474;2024-03-23T12:18:47;8.67;;;2.40;;
12906;SDS011;6521;50.498;8.474;2024-03-23T12:21:22;5.07;;;2.50;;
12906;SDS011;6521;50.498;8.474;2024-03-23T12:23:56;5.37;;;2.57;;
12906;SDS011;6521;50.498;8.474;2024-03-23T12:26:29;4.63;;;2.20;;
12906;SDS011;6521;50.498;8.474;2024-03-23T12:28:59;6.97;;;2.50;;
12906;SDS011;6521;50.498;8.474;2024-03-23T12:31:31;5.70;;;2.87;;
12906;SDS011;6521;50.498;8.474;2024-03-23T12:34:02;7.20;;;2.90;;
12906;SDS011;6521;50.498;8.474;2024-03-23T12:36:34;5.97;;;2.50;;
12906;SDS011;6521;50.498;8.474;2024-03-23T12:39:04;7.17;;;2.67;;
12906;SDS011;6521;50.498;8.474;2024-03-23T12:41:35;8.53;;;2.20;;
12906;SDS011;6521;50.498;8.474;2024-03-23T12:44:16;8.30;;;3.90;;
12906;SDS011;6521;50.498;8.474;2024-03-23T12:46:49;4.13;;;2.30;;
12906;SDS011;6521;50.498;8.474;2024-03-23T12:49:20;6.17;;;2.23;;
12906;SDS011;6521;50.498;8.474;2024-03-23T12:51:54;6.10;;;2.30;;
12906;SDS011;6521;50.498;8.474;2024-03-23T12:54:26;7.83;;;2.00;;
12906;SDS011;6521;50.498;8.474;2024-03-23T12:57:01;5.53;;;2.10;;
12906;SDS011;6521;50.498;8.474;2024-03-23T12:59:32;3.67;;;1.80;;
12906;SDS011;6521;50.498;8.474;2024-03-23T13:02:07;2.37;;;1.97;;
12906;SDS011;6521;50.498;8.474;2024-03-23T13:04:38;2.03;;;1.40;;
12906;SDS011;6521;50.498;8.474;2024-03-23T13:07:09;3.87;;;2.20;;
12906;SDS011;6521;50.498;8.474;2024-03-23T13:09:40;3.50;;;1.50;;
12906;SDS011;6521;50.498;8.474;2024-03-23T13:12:12;3.23;;;1.60;;
12906;SDS011;6521;50.498;8.474;2024-03-23T13:14:44;6.30;;;1.90;;
12906;SDS011;6521;50.498;8.474;2024-03-23T13:17:16;2.63;;;1.93;;
12906;SDS011;6521;50.498;8.474;2024-03-23T13:19:47;3.97;;;2.77;;
12906;SDS011;6521;50.498;8.474;2024-03-23T13:22:18;11.73;;;5.67;;
12906;SDS011;6521;50.498;8.474;2024-03-23T13:24:49;1.93;;;1.70;;
12906;SDS011;6521;50.498;8.474;2024-03-23T13:27:21;2.30;;;1.70;;
12906;SDS011;6521;50.498;8.474;2024-03-23T13:29:53;2.27;;;1.67;;
12906;SDS011;6521;50.498;8.474;2024-03-23T13:32:24;4.30;;;2.03;;
12906;SDS011;6521;50.498;8.474;2024-03-23T13:34:56;3.23;;;2.10;;
12906;SDS011;6521;50.498;8.474;2024-03-23T13:37:28;3.10;;;2.40;;
12906;SDS011;6521;50.498;8.474;2024-03-23T13:39:59;5.00;;;2.30;;
12906;SDS011;6521;50.498;8.474;2024-03-23T13:42:32;4.90;;;2.00;;
12906;SDS011;6521;50.498;8.474;2024-03-23T13:45:04;3.20;;;1.67;;
12906;SDS011;6521;50.498;8.474;2024-03-23T13:47:37;3.07;;;2.20;;
12906;SDS011;6521;50.498;8.474;2024-03-23T13:50:10;2.23;;;1.40;;
12906;SDS011;6521;50.498;8.474;2024-03-23T13:52:41;2.50;;;1.50;;
12906;SDS011;6521;50.498;8.474;2024-03-23T13:55:14;1.73;;;1.30;;
12906;SDS011;6521;50.498;8.474;2024-03-23T13:57:46;1.23;;;1.13;;
12906;SDS011;6521;50.498;8.474;2024-03-23T14:00:19;2.27;;;1.30;;
12906;SDS011;6521;50.498;8.474;2024-03-23T14:02:52;4.77;;;1.70;;
12906;SDS011;6521;50.498;8.474;2024-03-23T14:05:23;2.77;;;1.60;;
12906;SDS011;6521;50.498;8.474;2024-03-23T14:07:56;1.93;;;1.83;;
12906;SDS011;6521;50.498;8.474;2024-03-23T14:10:27;3.20;;;1.43;;
12906;SDS011;6521;50.498;8.474;2024-03-23T14:13:03;8.33;;;2.80;;
12906;SDS011;6521;50.498;8.474;2024-03-23T14:15:35;1.70;;;1.60;;
12906;SDS011;6521;50.498;8.474;2024-03-23T14:18:09;3.07;;;1.87;;
12906;SDS011;6521;50.498;8.474;2024-03-23T14:20:41;3.97;;;1.70;;
12906;SDS011;6521;50.498;8.474;2024-03-23T14:23:14;3.10;;;1.70;;
12906;SDS011;6521;50.498;8.474;2024-03-23T14:25:47;2.77;;;1.77;;
12906;SDS011;6521;50.498;8.474;2024-03-23T14:28:18;2.00;;;1.50;;
12906;SDS011;6521;50.498;8.474;2024-03-23T14:30:50;1.80;;;1.30;;
12906;SDS011;6521;50.498;8.474;2024-03-23T14:33:27;5.57;;;2.77;;
12906;SDS011;6521;50.498;8.474;2024-03-23T14:35:58;4.77;;;2.90;;
12906;SDS011;6521;50.498;8.474;2024-03-23T14:38:32;4.23;;;3.07;;
12906;SDS011;6521;50.498;8.474;2024-03-23T14:41:03;2.37;;;1.80;;
12906;SDS011;6521;50.498;8.474;2024-03-23T14:43:36;5.13;;;1.80;;
12906;SDS011;6521;50.498;8.474;2024-03-23T14:46:13;4.20;;;2.20;;
12906;SDS011;6521;50.498;8.474;2024-03-23T14:48:45;3.97;;;2.17;;
12906;SDS011;6521;50.498;8.474;2024-03-23T14:51:17;3.07;;;1.60;;
12906;SDS011;6521;50.498;8.474;2024-03-23T14:53:49;2.20;;;1.57;;
12906;SDS011;6521;50.498;8.474;2024-03-23T14:56:20;9.20;;;1.90;;
12906;SDS011;6521;50.498;8.474;2024-03-23T14:58:54;5.13;;;2.57;;
12906;SDS011;6521;50.498;8.474;2024-03-23T15:01:28;3.83;;;1.80;;
12906;SDS011;6521;50.498;8.474;2024-03-23T15:04:06;3.73;;;2.00;;
12906;SDS011;6521;50.498;8.474;2024-03-23T15:06:38;2.30;;;1.47;;
12906;SDS011;6521;50.498;8.474;2024-03-23T15:09:09;3.07;;;1.57;;
12906;SDS011;6521;50.498;8.474;2024-03-23T15:11:43;3.63;;;1.80;;
12906;SDS011;6521;50.498;8.474;2024-03-23T15:14:15;3.77;;;2.10;;
12906;SDS011;6521;50.498;8.474;2024-03-23T15:16:46;4.57;;;2.40;;
12906;SDS011;6521;50.498;8.474;2024-03-23T15:19:19;11.23;;;3.63;;
12906;SDS011;6521;50.498;8.474;2024-03-23T15:21:50;10.43;;;4.73;;
12906;SDS011;6521;50.498;8.474;2024-03-23T15:24:22;6.37;;;3.27;;
12906;SDS011;6521;50.498;8.474;2024-03-23T15:26:53;6.70;;;3.83;;
12906;SDS011;6521;50.498;8.474;2024-03-23T15:29:24;11.57;;;4.93;;
12906;SDS011;6521;50.498;8.474;2024-03-23T15:31:55;6.80;;;3.10;;
12906;SDS011;6521;50.498;8.474;2024-03-23T15:34:27;5.67;;;3.03;;
12906;SDS011;6521;50.498;8.474;2024-03-23T15:37:07;4.27;;;2.50;;
12906;SDS011;6521;50.498;8.474;2024-03-23T15:39:38;4.00;;;2.87;;
12906;SDS011;6521;50.498;8.474;2024-03-23T15:42:09;8.87;;;4.20;;
12906;SDS011;6521;50.498;8.474;2024-03-23T15:44:41;4.63;;;2.63;;
12906;SDS011;6521;50.498;8.474;2024-03-23T15:47:12;9.13;;;3.10;;
12906;SDS011;6521;50.498;8.474;2024-03-23T15:49:43;8.37;;;3.67;;
12906;SDS011;6521;50.498;8.474;2024-03-23T15:52:15;4.73;;;2.63;;
12906;SDS011;6521;50.498;8.474;2024-03-23T15:54:46;4.57;;;2.40;;
12906;SDS011;6521;50.498;8.474;2024-03-23T15:57:17;3.57;;;1.80;;
12906;SDS011;6521;50.498;8.474;2024-03-23T15:59:48;4.47;;;3.23;;
12906;SDS011;6521;50.498;8.474;2024-03-23T16:02:21;1.80;;;1.60;;
12906;SDS011;6521;50.498;8.474;2024-03-23T16:04:56;3.07;;;1.60;;
12906;SDS011;6521;50.498;8.474;2024-03-23T16:07:29;2.67;;;1.47;;
12906;SDS011;6521;50.498;8.474;2024-03-23T16:10:03;3.63;;;1.87;;
12906;SDS011;6521;50.498;8.474;2024-03-23T16:12:39;3.17;;;1.73;;
12906;SDS011;6521;50.498;8.474;2024-03-23T16:15:10;5.60;;;2.43;;
12906;SDS011;6521;50.498;8.474;2024-03-23T16:17:44;3.67;;;1.50;;
12906;SDS011;6521;50.498;8.474;2024-03-23T16:20:15;3.30;;;2.40;;
12906;SDS011;6521;50.498;8.474;2024-03-23T16:22:53;3.27;;;2.23;;
12906;SDS011;6521;50.498;8.474;2024-03-23T16:25:24;11.00;;;5.80;;